Time;durP1;ratioP1;P1;durP2;ratioP2;P2;SDS_P1;SDS_P2;PMS_P1;PMS_P2;Temp;Humidity;BMP_temperature;BMP_pressure;BME280_temperature;BME280_humidity;BME280_pressure;Samples;Min_cycle;Max_cycle;Signal;HPM_P1;HPM_P2
2023/09/29 00:00:48;;;;;;;4.78;1.25;;;18.90;99.90;;;;;;4165628;28;20172;-88
2023/09/29 00:02:52;;;;;;;4.45;1.50;;;18.80;99.90;;;;;;4165488;28;20180;-89
2023/09/29 00:04:53;;;;;;;1.35;0.73;;;18.80;99.90;;;;;;4165263;28;20238;-89
2023/09/29 00:06:54;;;;;;;3.28;1.35;;;18.90;99.90;;;;;;4182136;28;20160;-89
2023/09/29 00:08:55;;;;;;;2.92;0.85;;;18.90;99.90;;;;;;4165663;28;20595;-91
2023/09/29 00:10:55;;;;;;;3.08;0.65;;;19.00;99.90;;;;;;4165472;28;20244;-89
2023/09/29 00:12:56;;;;;;;2.85;1.00;;;18.90;99.90;;;;;;4164452;28;20715;-90
2023/09/29 00:14:57;;;;;;;1.20;0.70;;;19.10;99.90;;;;;;4165170;28;20283;-89
2023/09/29 00:16:58;;;;;;;5.07;1.17;;;19.00;99.90;;;;;;4165259;28;20168;-89
2023/09/29 00:18:59;;;;;;;0.95;0.55;;;19.20;99.90;;;;;;4165387;28;20184;-94
2023/09/29 00:20:59;;;;;;;2.17;0.73;;;19.10;99.90;;;;;;4165351;28;20187;-93
2023/09/29 00:23:01;;;;;;;1.83;0.60;;;18.80;99.90;;;;;;4165302;28;20168;-89
2023/09/29 00:25:04;;;;;;;3.22;1.05;;;18.70;99.90;;;;;;4165327;28;20268;-89
2023/09/29 00:27:04;;;;;;;2.92;0.80;;;18.60;99.90;;;;;;4165229;28;20168;-89
2023/09/29 00:29:05;;;;;;;2.80;0.85;;;18.60;99.90;;;;;;4164986;28;20202;-89
2023/09/29 00:31:06;;;;;;;2.53;0.73;;;18.60;99.90;;;;;;4165333;28;20164;-88
2023/09/29 00:33:08;;;;;;;2.90;0.93;;;18.60;99.90;;;;;;4181729;28;20172;-92
2023/09/29 00:35:10;;;;;;;3.45;1.10;;;18.70;99.90;;;;;;4165264;28;20226;-89
2023/09/29 00:37:11;;;;;;;1.70;0.80;;;18.60;99.90;;;;;;4165345;28;20238;-89
2023/09/29 00:39:13;;;;;;;3.13;1.00;;;18.70;99.90;;;;;;4165135;28;20175;-89
2023/09/29 00:41:14;;;;;;;2.97;0.90;;;18.80;99.90;;;;;;4165040;28;20234;-89
2023/09/29 00:43:15;;;;;;;5.10;1.13;;;18.70;99.90;;;;;;4164536;28;20623;-94
2023/09/29 00:45:20;;;;;;;3.13;1.30;;;18.70;99.90;;;;;;4164804;28;20231;-89
2023/09/29 00:47:20;;;;;;;8.55;1.27;;;18.50;99.90;;;;;;4164916;28;20172;-89
2023/09/29 00:49:21;;;;;;;5.05;1.10;;;18.40;99.90;;;;;;4165141;28;20211;-89
2023/09/29 00:51:22;;;;;;;5.93;1.40;;;18.50;99.90;;;;;;4164976;28;20547;-89
2023/09/29 00:53:23;;;;;;;2.45;1.00;;;18.70;99.90;;;;;;4181137;28;20206;-89
2023/09/29 00:55:27;;;;;;;1.80;0.85;;;18.80;99.90;;;;;;4164833;28;20803;-89
2023/09/29 00:57:28;;;;;;;1.95;0.90;;;18.80;99.90;;;;;;4181345;28;20654;-88
2023/09/29 00:59:31;;;;;;;4.32;1.50;;;19.00;99.90;;;;;;4164846;28;20263;-89
2023/09/29 01:01:35;;;;;;;5.10;1.50;;;19.10;99.90;;;;;;4181205;28;20179;-89
2023/09/29 01:03:36;;;;;;;3.90;0.80;;;19.30;99.90;;;;;;4164488;28;20186;-89
2023/09/29 01:05:39;;;;;;;7.50;1.15;;;19.20;99.90;;;;;;4181116;28;20175;-93
2023/09/29 01:07:42;;;;;;;4.22;0.90;;;19.20;99.90;;;;;;4164612;28;20164;-94
2023/09/29 01:09:44;;;;;;;1.98;0.75;;;19.30;99.90;;;;;;4164680;28;20195;-89
2023/09/29 01:11:44;;;;;;;1.58;0.73;;;19.40;99.90;;;;;;4180992;28;20275;-93
2023/09/29 01:13:45;;;;;;;5.85;0.88;;;19.30;99.90;;;;;;4180859;28;20178;-90
2023/09/29 01:15:46;;;;;;;5.07;1.17;;;19.10;99.90;;;;;;4180971;28;20640;-90
2023/09/29 01:17:48;;;;;;;2.03;0.75;;;19.00;99.90;;;;;;4181285;28;20174;-89
2023/09/29 01:19:48;;;;;;;3.85;0.80;;;19.00;99.90;;;;;;4181022;28;20179;-89
2023/09/29 01:21:51;;;;;;;4.68;1.35;;;19.20;99.90;;;;;;4180839;28;20175;-94
2023/09/29 01:23:52;;;;;;;1.73;0.65;;;19.20;99.90;;;;;;4181583;28;20191;-89
2023/09/29 01:25:52;;;;;;;1.50;0.50;;;19.10;99.90;;;;;;4180962;28;20517;-89
2023/09/29 01:27:54;;;;;;;4.57;1.20;;;19.10;99.90;;;;;;4180989;28;20662;-90
2023/09/29 01:29:55;;;;;;;2.78;0.93;;;19.30;99.90;;;;;;4164435;28;20243;-90
2023/09/29 01:31:55;;;;;;;2.65;1.10;;;19.40;99.90;;;;;;4180727;28;20189;-93
2023/09/29 01:33:56;;;;;;;3.90;0.65;;;19.40;99.90;;;;;;4164255;28;20200;-93
2023/09/29 01:35:57;;;;;;;2.95;0.77;;;19.40;99.90;;;;;;4180724;28;20628;-90
2023/09/29 01:38:00;;;;;;;3.30;1.08;;;19.40;99.90;;;;;;4164359;28;20183;-94
2023/09/29 01:40:02;;;;;;;2.33;0.55;;;19.40;99.90;;;;;;4164287;28;20176;-89
2023/09/29 01:42:05;;;;;;;3.28;0.68;;;19.20;99.90;;;;;;4164297;28;20180;-94
2023/09/29 01:44:06;;;;;;;4.22;0.63;;;19.30;99.90;;;;;;4164414;28;20246;-91
2023/09/29 01:46:10;;;;;;;2.20;0.80;;;19.60;99.90;;;;;;4164402;28;20183;-93
2023/09/29 01:48:11;;;;;;;1.90;0.90;;;19.60;99.90;;;;;;4164543;28;20265;-91
2023/09/29 01:50:16;;;;;;;3.42;0.50;;;19.80;99.90;;;;;;4164492;28;20239;-88
2023/09/29 01:52:17;;;;;;;0.77;0.30;;;19.90;99.90;;;;;;4164513;28;20168;-95
2023/09/29 01:54:17;;;;;;;2.15;0.80;;;19.80;99.90;;;;;;4164224;28;20700;-89
2023/09/29 01:56:21;;;;;;;3.30;0.70;;;19.80;99.90;;;;;;4164285;28;20168;-93
2023/09/29 01:58:26;;;;;;;1.02;0.43;;;19.90;99.90;;;;;;4164148;28;20176;-93
2023/09/29 02:00:29;;;;;;;1.27;0.43;;;19.70;99.90;;;;;;4164108;28;20238;-95
2023/09/29 02:02:30;;;;;;;0.95;0.60;;;19.70;99.90;;;;;;4164169;28;20585;-89
2023/09/29 02:04:31;;;;;;;4.47;0.60;;;19.70;99.90;;;;;;4180757;28;20314;-93
2023/09/29 02:06:32;;;;;;;2.72;0.50;;;19.90;99.90;;;;;;4164458;28;20168;-93
2023/09/29 02:08:32;;;;;;;2.03;0.70;;;19.60;99.90;;;;;;4164572;28;20176;-93
2023/09/29 02:10:33;;;;;;;5.82;0.80;;;19.80;99.90;;;;;;4164153;28;20430;-89
2023/09/29 02:12:35;;;;;;;3.78;0.90;;;19.90;99.90;;;;;;4164445;28;20175;-89
2023/09/29 02:14:37;;;;;;;3.08;0.57;;;20.20;99.90;;;;;;4164256;28;20759;-88
2023/09/29 02:16:38;;;;;;;2.95;0.60;;;20.00;99.90;;;;;;4180445;28;20164;-90
2023/09/29 02:18:39;;;;;;;2.75;0.70;;;20.00;99.90;;;;;;4180640;28;20223;-90
2023/09/29 02:20:46;;;;;;;3.50;0.95;;;20.00;99.90;;;;;;4180700;28;20262;-88
2023/09/29 02:22:48;;;;;;;1.52;0.60;;;19.80;99.90;;;;;;4180585;28;20198;-89
2023/09/29 02:24:49;;;;;;;1.88;0.45;;;19.80;99.90;;;;;;4164169;28;20258;-88
2023/09/29 02:26:50;;;;;;;3.65;0.82;;;19.90;99.90;;;;;;4180347;28;20178;-90
2023/09/29 02:28:51;;;;;;;3.50;0.55;;;19.80;99.90;;;;;;4163962;28;20528;-90
2023/09/29 02:30:52;;;;;;;2.08;0.77;;;19.70;99.90;;;;;;4163875;28;20208;-89
2023/09/29 02:32:53;;;;;;;1.23;0.50;;;19.80;99.90;;;;;;4180666;28;20192;-90
2023/09/29 02:34:55;;;;;;;3.30;0.47;;;19.70;99.90;;;;;;4163893;28;20253;-94
2023/09/29 02:36:55;;;;;;;1.42;0.50;;;19.80;99.90;;;;;;4183336;28;20170;-95
2023/09/29 02:38:56;;;;;;;2.25;0.93;;;19.80;99.90;;;;;;4166884;28;20184;-89
2023/09/29 02:40:59;;;;;;;0.95;0.30;;;19.60;99.90;;;;;;4166859;28;20568;-91
2023/09/29 02:43:00;;;;;;;1.42;0.65;;;19.60;99.90;;;;;;4190542;28;20245;-95
2023/09/29 02:45:01;;;;;;;4.30;0.93;;;19.60;99.90;;;;;;4170485;28;20184;-91
2023/09/29 02:47:02;;;;;;;3.25;0.52;;;19.40;99.90;;;;;;4170633;28;20195;-91
2023/09/29 02:49:03;;;;;;;1.77;0.60;;;19.30;99.90;;;;;;4189795;28;20168;-91
2023/09/29 02:51:13;;;;;;;1.58;0.50;;;19.40;99.90;;;;;;4190507;28;20180;-91
2023/09/29 02:53:14;;;;;;;0.80;0.60;;;19.30;99.90;;;;;;4172815;28;20172;-91
2023/09/29 02:55:16;;;;;;;1.65;0.30;;;19.20;99.90;;;;;;4170945;28;20200;-92
2023/09/29 02:57:17;;;;;;;4.20;1.08;;;19.20;99.90;;;;;;4173001;28;20168;-96
2023/09/29 02:59:20;;;;;;;2.38;0.50;;;19.30;99.90;;;;;;4170104;28;20190;-92
2023/09/29 03:01:22;;;;;;;2.22;0.73;;;19.40;99.90;;;;;;4191094;28;20269;-91
2023/09/29 03:03:27;;;;;;;3.88;0.73;;;19.50;99.90;;;;;;4188323;28;20187;-96
2023/09/29 03:05:28;;;;;;;3.53;0.70;;;19.60;99.90;;;;;;4171792;28;20184;-92
2023/09/29 03:07:29;;;;;;;0.98;0.50;;;19.60;99.90;;;;;;4171564;28;20540;-91
2023/09/29 03:09:29;;;;;;;2.03;0.38;;;19.50;99.90;;;;;;4170120;28;20192;-91
2023/09/29 03:11:30;;;;;;;4.15;0.73;;;19.50;99.90;;;;;;4171855;28;20652;-91
2023/09/29 03:13:31;;;;;;;1.00;0.60;;;19.50;99.90;;;;;;4175755;28;20639;-91
2023/09/29 03:15:31;;;;;;;0.90;0.52;;;19.70;99.90;;;;;;4173313;28;20196;-92
2023/09/29 03:17:32;;;;;;;2.35;0.55;;;19.80;99.90;;;;;;4171639;28;20263;-90
2023/09/29 03:19:34;;;;;;;1.30;0.60;;;19.90;99.90;;;;;;4191246;28;20179;-92
2023/09/29 03:21:42;;;;;;;4.20;0.80;;;19.90;99.90;;;;;;4189211;28;20265;-90
2023/09/29 03:23:45;;;;;;;1.60;0.50;;;19.90;99.90;;;;;;4175425;28;20214;-91
2023/09/29 03:25:46;;;;;;;0.95;0.50;;;19.80;99.90;;;;;;4190881;28;20156;-92
2023/09/29 03:27:48;;;;;;;2.38;0.50;;;19.60;99.90;;;;;;4173476;28;20184;-92
2023/09/29 03:29:48;;;;;;;0.65;0.50;;;19.60;99.90;;;;;;4174255;28;20199;-93
2023/09/29 03:31:53;;;;;;;0.77;0.43;;;19.70;99.90;;;;;;4192453;28;20199;-90
2023/09/29 03:33:54;;;;;;;1.60;0.60;;;19.70;99.90;;;;;;4176659;28;20231;-90
2023/09/29 03:35:55;;;;;;;3.20;0.52;;;19.70;99.90;;;;;;4174571;28;20536;-94
2023/09/29 03:37:56;;;;;;;3.47;0.70;;;19.80;99.90;;;;;;4175936;28;20172;-91
2023/09/29 03:39:57;;;;;;;1.98;0.80;;;19.80;99.90;;;;;;4174839;28;20184;-96
2023/09/29 03:41:59;;;;;;;0.90;0.52;;;19.80;99.90;;;;;;4189375;28;20199;-90
2023/09/29 03:44:03;;;;;;;0.40;0.30;;;20.00;99.90;;;;;;4172757;28;20264;-96
2023/09/29 03:46:04;;;;;;;1.35;0.57;;;20.00;99.90;;;;;;4171877;28;20167;-90
2023/09/29 03:48:05;;;;;;;1.63;0.40;;;20.00;99.90;;;;;;4174214;28;20182;-91
2023/09/29 03:50:24;;;;;;;0.80;0.32;;;20.10;99.90;;;;;;4178462;28;20216;-90
2023/09/29 03:52:25;;;;;;;1.85;0.55;;;19.90;99.90;;;;;;4191594;28;20246;-91
2023/09/29 03:54:26;;;;;;;1.02;0.47;;;20.00;99.90;;;;;;4170311;28;20200;-92
2023/09/29 03:56:27;;;;;;;2.40;0.65;;;20.20;99.90;;;;;;4176337;28;20172;-96
2023/09/29 03:58:28;;;;;;;2.35;1.25;;;20.30;99.90;;;;;;4192993;28;20190;-96
2023/09/29 04:00:30;;;;;;;0.55;0.38;;;20.10;99.90;;;;;;4189251;28;20236;-90
2023/09/29 04:02:31;;;;;;;1.38;0.70;;;20.40;99.90;;;;;;4173660;28;20195;-95
2023/09/29 04:04:32;;;;;;;0.80;0.50;;;20.50;99.90;;;;;;4171800;28;20192;-90
2023/09/29 04:06:34;;;;;;;1.88;0.47;;;20.50;99.90;;;;;;4188149;28;20262;-91
2023/09/29 04:08:35;;;;;;;3.00;0.80;;;20.50;99.90;;;;;;4175611;28;20168;-96
2023/09/29 04:10:36;;;;;;;0.50;0.50;;;20.60;99.90;;;;;;4171288;28;20203;-90
2023/09/29 04:12:40;;;;;;;0.70;0.40;;;20.40;99.90;;;;;;4171092;28;20224;-93
2023/09/29 04:14:41;;;;;;;0.47;0.40;;;20.30;99.90;;;;;;4174979;28;20548;-92
2023/09/29 04:16:42;;;;;;;0.98;0.68;;;20.30;99.90;;;;;;4174007;28;20188;-90
2023/09/29 04:18:42;;;;;;;0.88;0.38;;;20.40;99.90;;;;;;4176597;28;20196;-90
2023/09/29 04:20:43;;;;;;;1.25;0.47;;;20.40;99.90;;;;;;4188492;28;20183;-94
2023/09/29 04:22:45;;;;;;;1.02;0.50;;;20.40;99.90;;;;;;4189355;28;20223;-91
2023/09/29 04:24:45;;;;;;;0.93;0.47;;;20.40;99.90;;;;;;4190783;28;20199;-96
2023/09/29 04:26:46;;;;;;;2.42;0.50;;;20.30;99.90;;;;;;4188810;28;20186;-91
2023/09/29 04:28:48;;;;;;;1.20;0.57;;;20.20;99.90;;;;;;4175506;28;20171;-94
2023/09/29 04:30:49;;;;;;;3.53;0.70;;;20.20;99.90;;;;;;4174965;28;20196;-92
2023/09/29 04:32:49;;;;;;;1.40;0.60;;;20.30;99.90;;;;;;4176022;28;20267;-91
2023/09/29 04:34:50;;;;;;;0.60;0.50;;;20.40;99.90;;;;;;4173874;28;20222;-94
2023/09/29 04:36:51;;;;;;;1.60;0.88;;;20.40;99.90;;;;;;4189590;28;20180;-90
2023/09/29 04:38:51;;;;;;;3.53;0.80;;;20.60;99.90;;;;;;4172215;28;20176;-92
2023/09/29 04:40:52;;;;;;;0.60;0.50;;;20.40;99.90;;;;;;4173729;28;20184;-91
2023/09/29 04:42:54;;;;;;;1.40;0.55;;;20.40;99.90;;;;;;4172560;28;20259;-91
2023/09/29 04:44:54;;;;;;;0.50;0.47;;;20.30;99.90;;;;;;4168926;28;20214;-96
2023/09/29 04:46:55;;;;;;;0.90;0.50;;;20.40;99.90;;;;;;4171171;28;20160;-91
2023/09/29 04:48:56;;;;;;;1.83;0.70;;;20.50;99.90;;;;;;4172597;28;20206;-95
2023/09/29 04:50:58;;;;;;;3.15;0.70;;;20.40;99.90;;;;;;4171757;28;20298;-94
2023/09/29 04:52:58;;;;;;;0.70;0.60;;;20.50;99.90;;;;;;4186380;28;20211;-95
2023/09/29 04:54:59;;;;;;;3.33;0.50;;;20.30;99.90;;;;;;4187557;28;20194;-91
2023/09/29 04:57:00;;;;;;;3.13;0.52;;;20.30;99.90;;;;;;4172144;28;20176;-91
2023/09/29 04:59:01;;;;;;;4.13;0.73;;;20.10;99.90;;;;;;4169110;28;20245;-90
2023/09/29 05:01:03;;;;;;;1.48;0.57;;;20.20;99.90;;;;;;4173111;28;20637;-90
2023/09/29 05:03:05;;;;;;;1.17;0.47;;;20.20;99.90;;;;;;4173548;28;20263;-92
2023/09/29 05:05:06;;;;;;;1.25;0.82;;;20.20;99.90;;;;;;4191055;28;20258;-91
2023/09/29 05:07:08;;;;;;;0.75;0.52;;;20.30;99.90;;;;;;4204581;28;20167;-93
2023/09/29 05:09:11;;;;;;;1.55;0.60;;;20.20;99.90;;;;;;4170654;28;20210;-89
2023/09/29 05:11:22;;;;;;;1.23;0.50;;;20.00;99.90;;;;;;4176611;28;20244;-90
2023/09/29 05:13:24;;;;;;;2.35;0.52;;;19.90;99.90;;;;;;4191020;28;20181;-91
2023/09/29 05:15:25;;;;;;;0.90;0.80;;;19.90;99.90;;;;;;4173267;28;20238;-90
2023/09/29 05:17:25;;;;;;;0.82;0.50;;;20.00;99.90;;;;;;4174473;28;20629;-91
2023/09/29 05:19:26;;;;;;;2.72;0.47;;;19.90;99.90;;;;;;4173571;28;20176;-94
2023/09/29 05:21:27;;;;;;;2.60;0.47;;;20.00;99.90;;;;;;4172983;28;20236;-90
2023/09/29 05:23:28;;;;;;;1.08;0.80;;;19.90;99.90;;;;;;4174339;28;20159;-90
2023/09/29 05:25:28;;;;;;;4.97;0.93;;;19.80;99.90;;;;;;4172146;28;20192;-91
2023/09/29 05:27:31;;;;;;;1.15;0.52;;;19.80;99.90;;;;;;4171954;28;20157;-96
2023/09/29 05:29:32;;;;;;;1.50;0.80;;;19.80;99.90;;;;;;4174427;28;20254;-91
2023/09/29 05:31:33;;;;;;;1.40;0.60;;;19.80;99.90;;;;;;4172265;28;20168;-90
2023/09/29 05:33:34;;;;;;;0.90;0.40;;;19.80;99.90;;;;;;4173620;28;20172;-93
2023/09/29 05:35:34;;;;;;;4.00;0.80;;;19.80;99.90;;;;;;4172551;28;20191;-91
2023/09/29 05:37:35;;;;;;;1.88;0.80;;;19.90;99.90;;;;;;4187852;28;20254;-90
2023/09/29 05:39:36;;;;;;;1.40;0.52;;;19.90;99.90;;;;;;4176141;28;20695;-90
2023/09/29 05:41:37;;;;;;;1.63;0.90;;;20.00;99.90;;;;;;4170866;28;20176;-91
2023/09/29 05:43:38;;;;;;;2.67;0.70;;;20.00;99.90;;;;;;4185484;28;20171;-90
2023/09/29 05:45:41;;;;;;;2.35;0.60;;;19.90;99.90;;;;;;4169295;28;20232;-90
2023/09/29 05:47:42;;;;;;;4.35;0.93;;;19.80;99.90;;;;;;4171061;28;20168;-91
2023/09/29 05:49:42;;;;;;;1.58;0.77;;;20.00;99.90;;;;;;4172654;28;20295;-91
2023/09/29 05:51:43;;;;;;;1.88;0.80;;;19.90;99.90;;;;;;4168542;28;20180;-89
2023/09/29 05:53:44;;;;;;;1.35;0.65;;;20.00;99.90;;;;;;4164156;28;20529;-95
2023/09/29 05:55:45;;;;;;;0.77;0.68;;;20.00;99.90;;;;;;4164277;28;20169;-94
2023/09/29 05:57:46;;;;;;;1.52;0.80;;;20.00;99.90;;;;;;4164286;28;20255;-96
2023/09/29 05:59:46;;;;;;;2.70;0.85;;;19.90;99.90;;;;;;4164880;28;20546;-91
2023/09/29 06:01:47;;;;;;;1.73;0.60;;;19.90;99.90;;;;;;4185809;28;20333;-95
2023/09/29 06:03:48;;;;;;;2.08;0.85;;;20.00;99.90;;;;;;4189141;28;20175;-95
2023/09/29 06:05:49;;;;;;;1.05;0.60;;;20.20;99.90;;;;;;4171014;28;20168;-91
2023/09/29 06:07:49;;;;;;;1.10;0.75;;;20.40;99.90;;;;;;4170764;28;20164;-90
2023/09/29 06:09:50;;;;;;;1.15;0.60;;;20.50;99.90;;;;;;4193507;28;20214;-93
2023/09/29 06:11:51;;;;;;;1.75;0.70;;;20.60;99.90;;;;;;4175180;28;20577;-94
2023/09/29 06:13:53;;;;;;;0.57;0.40;;;20.50;99.90;;;;;;4177386;28;20167;-91
2023/09/29 06:15:56;;;;;;;1.45;0.65;;;20.40;99.90;;;;;;4174369;28;20169;-90
2023/09/29 06:17:56;;;;;;;1.30;0.77;;;20.40;99.90;;;;;;4191063;28;20171;-96
2023/09/29 06:19:57;;;;;;;2.30;0.63;;;20.40;99.90;;;;;;4189845;28;20227;-92
2023/09/29 06:22:01;;;;;;;4.15;0.60;;;20.30;99.90;;;;;;4179308;28;20191;-91
2023/09/29 06:24:02;;;;;;;1.10;0.60;;;20.30;99.90;;;;;;4174872;28;20188;-91
2023/09/29 06:26:02;;;;;;;1.17;0.70;;;20.20;99.90;;;;;;4175187;28;20222;-90
2023/09/29 06:28:03;;;;;;;2.95;1.15;;;20.20;99.90;;;;;;4191716;28;20732;-95
2023/09/29 06:30:05;;;;;;;1.05;0.65;;;20.30;99.90;;;;;;4200239;28;20211;-92
2023/09/29 06:32:08;;;;;;;2.38;0.60;;;20.20;99.90;;;;;;4181248;28;20152;-89
2023/09/29 06:34:09;;;;;;;0.82;0.50;;;20.20;99.90;;;;;;4173030;28;20203;-92
2023/09/29 06:36:10;;;;;;;1.25;0.60;;;20.10;99.90;;;;;;4173764;28;20165;-91
2023/09/29 06:38:11;;;;;;;5.13;0.80;;;20.30;99.90;;;;;;4176062;28;20184;-94
2023/09/29 06:40:12;;;;;;;0.80;0.50;;;20.30;99.90;;;;;;4177016;28;20263;-91
2023/09/29 06:42:15;;;;;;;0.68;0.60;;;20.40;99.90;;;;;;4188899;28;20175;-95
2023/09/29 06:44:15;;;;;;;0.88;0.50;;;20.50;99.90;;;;;;4192227;28;20188;-93
2023/09/29 06:46:16;;;;;;;1.15;0.80;;;20.70;99.90;;;;;;4175448;28;20676;-96
2023/09/29 06:48:17;;;;;;;2.55;0.68;;;20.70;99.90;;;;;;4174127;28;20176;-92
2023/09/29 06:50:18;;;;;;;1.30;0.57;;;20.80;99.90;;;;;;4175209;28;20208;-96
2023/09/29 06:52:18;;;;;;;0.80;0.50;;;20.80;99.90;;;;;;4175772;28;20187;-95
2023/09/29 06:54:21;;;;;;;3.05;0.82;;;20.70;99.90;;;;;;4173842;28;20265;-91
2023/09/29 06:56:21;;;;;;;2.25;0.70;;;20.90;99.90;;;;;;4175016;28;20164;-92
2023/09/29 06:58:22;;;;;;;3.40;0.90;;;20.90;99.90;;;;;;4171934;28;20264;-96
2023/09/29 07:00:23;;;;;;;7.47;0.85;;;20.80;99.90;;;;;;4173476;28;20224;-90
2023/09/29 07:02:23;;;;;;;1.05;0.50;;;21.00;99.90;;;;;;4171486;28;20179;-93
2023/09/29 07:04:24;;;;;;;1.60;0.73;;;21.10;99.90;;;;;;4174161;28;20184;-90
2023/09/29 07:06:25;;;;;;;5.03;0.68;;;21.40;99.90;;;;;;4192229;28;20258;-90
2023/09/29 07:08:30;;;;;;;1.08;0.75;;;21.70;99.90;;;;;;4175496;28;20180;-90
2023/09/29 07:10:30;;;;;;;1.55;0.63;;;21.60;99.90;;;;;;4172161;28;20799;-92
2023/09/29 07:12:31;;;;;;;3.38;0.70;;;21.60;99.90;;;;;;4173920;28;20173;-92
2023/09/29 07:14:32;;;;;;;1.17;0.52;;;21.80;99.90;;;;;;4189299;28;20203;-90
2023/09/29 07:16:33;;;;;;;3.72;0.90;;;21.80;99.90;;;;;;4174600;28;20255;-91
2023/09/29 07:18:34;;;;;;;1.63;0.70;;;21.90;99.90;;;;;;4173249;28;20211;-91
2023/09/29 07:20:34;;;;;;;6.03;0.90;;;22.00;99.90;;;;;;4172457;28;20210;-96
2023/09/29 07:22:36;;;;;;;3.60;0.60;;;22.20;99.90;;;;;;4171062;28;20259;-91
2023/09/29 07:24:41;;;;;;;3.08;0.70;;;22.20;99.90;;;;;;4173377;28;20192;-91
2023/09/29 07:26:42;;;;;;;1.95;0.70;;;22.00;99.90;;;;;;4174629;28;20172;-90
2023/09/29 07:28:43;;;;;;;1.27;0.70;;;21.70;99.90;;;;;;4171498;28;20179;-91
2023/09/29 07:30:45;;;;;;;3.03;1.02;;;21.70;99.90;;;;;;4173221;28;20219;-90
2023/09/29 07:32:46;;;;;;;1.50;0.77;;;21.50;99.90;;;;;;4176938;28;20184;-90
2023/09/29 07:34:46;;;;;;;1.88;0.60;;;21.50;99.90;;;;;;4187911;28;20249;-96
2023/09/29 07:36:48;;;;;;;3.88;1.10;;;21.80;99.90;;;;;;4189368;28;20175;-90
2023/09/29 07:38:49;;;;;;;3.22;0.90;;;21.70;99.90;;;;;;4174275;28;20188;-90
2023/09/29 07:40:51;;;;;;;1.35;0.75;;;21.50;99.90;;;;;;4188976;28;20239;-90
2023/09/29 07:42:52;;;;;;;4.38;0.88;;;21.60;99.90;;;;;;4174616;28;20176;-91
2023/09/29 07:44:53;;;;;;;1.70;0.80;;;21.60;99.90;;;;;;4171966;28;20192;-90
2023/09/29 07:46:53;;;;;;;1.33;0.40;;;21.50;99.90;;;;;;4176769;28;20171;-93
2023/09/29 07:48:54;;;;;;;3.88;0.60;;;22.30;99.90;;;;;;4174890;28;20164;-91
2023/09/29 07:50:55;;;;;;;2.78;0.80;;;23.30;99.90;;;;;;4172793;28;20223;-93
2023/09/29 07:52:56;;;;;;;1.02;0.43;;;23.40;99.90;;;;;;4175126;28;20175;-90
2023/09/29 07:54:56;;;;;;;1.70;0.73;;;23.70;99.90;;;;;;4173556;28;20204;-90
2023/09/29 07:56:57;;;;;;;0.90;0.52;;;24.20;99.90;;;;;;4173566;28;20177;-91
2023/09/29 07:58:58;;;;;;;1.40;0.68;;;24.70;99.90;;;;;;4190368;28;20217;-91
2023/09/29 08:00:59;;;;;;;1.30;0.60;;;24.80;99.90;;;;;;4190915;28;20556;-96
2023/09/29 08:03:00;;;;;;;5.07;0.60;;;24.80;99.90;;;;;;4177977;28;20211;-91
2023/09/29 08:05:01;;;;;;;5.05;1.02;;;24.70;99.90;;;;;;4174593;28;20227;-90
2023/09/29 08:07:02;;;;;;;2.08;0.65;;;24.40;99.90;;;;;;4175120;28;20172;-91
2023/09/29 08:09:03;;;;;;;4.47;0.90;;;24.20;99.90;;;;;;4171361;28;20195;-95
2023/09/29 08:11:04;;;;;;;1.70;0.75;;;23.80;99.90;;;;;;4171713;28;20231;-90
2023/09/29 08:13:05;;;;;;;2.03;0.80;;;23.60;99.90;;;;;;4172898;28;20239;-93
2023/09/29 08:15:10;;;;;;;7.93;1.90;;;23.30;99.90;;;;;;4190802;28;20672;-95
2023/09/29 08:17:11;;;;;;;3.67;0.70;;;23.10;99.90;;;;;;4169904;28;20259;-90
2023/09/29 08:19:12;;;;;;;2.45;0.70;;;22.80;99.90;;;;;;4185980;28;20218;-90
2023/09/29 08:21:13;;;;;;;5.38;1.15;;;22.50;99.90;;;;;;4168142;28;20175;-92
2023/09/29 08:23:14;;;;;;;5.40;1.17;;;22.20;99.90;;;;;;4171278;28;20240;-95
2023/09/29 08:25:15;;;;;;;6.95;1.30;;;22.40;99.90;;;;;;4171017;28;20176;-95
2023/09/29 08:27:16;;;;;;;2.13;1.10;;;22.40;99.90;;;;;;4186370;28;20168;-96
2023/09/29 08:29:17;;;;;;;4.65;0.88;;;22.20;99.90;;;;;;4170505;28;20219;-96
2023/09/29 08:31:18;;;;;;;3.13;1.00;;;22.10;99.90;;;;;;4187439;28;20187;-89
2023/09/29 08:33:18;;;;;;;7.63;1.55;;;22.10;99.90;;;;;;4168335;28;20183;-91
2023/09/29 08:35:19;;;;;;;2.33;0.73;;;22.00;99.90;;;;;;4172176;28;20222;-90
2023/09/29 08:37:20;;;;;;;5.93;1.27;;;22.20;99.90;;;;;;4170852;28;20660;-96
2023/09/29 08:39:21;;;;;;;7.40;1.00;;;22.10;99.90;;;;;;4170201;28;20251;-90
2023/09/29 08:41:26;;;;;;;2.67;1.10;;;22.00;99.90;;;;;;4189503;28;20223;-90
2023/09/29 08:43:28;;;;;;;3.42;1.17;;;22.00;99.90;;;;;;4171526;28;20207;-94
2023/09/29 08:45:31;;;;;;;2.25;1.25;;;22.00;99.90;;;;;;4171847;28;20191;-90
2023/09/29 08:47:35;;;;;;;4.97;1.00;;;21.90;99.90;;;;;;4169377;28;20651;-90
2023/09/29 08:49:36;;;;;;;4.90;0.73;;;21.70;99.90;;;;;;4171419;28;20691;-90
2023/09/29 08:51:38;;;;;;;4.15;0.95;;;21.80;99.90;;;;;;4178340;28;20191;-89
2023/09/29 08:53:40;;;;;;;2.58;0.60;;;22.00;99.90;;;;;;4191218;28;20206;-93
2023/09/29 08:55:42;;;;;;;6.85;1.58;;;22.10;99.90;;;;;;4187615;28;20710;-90
2023/09/29 08:57:45;;;;;;;3.45;0.85;;;22.10;99.90;;;;;;4170490;28;20294;-96
2023/09/29 08:59:48;;;;;;;3.22;0.75;;;21.90;99.90;;;;;;4174047;28;20247;-91
2023/09/29 09:01:51;;;;;;;4.28;1.42;;;22.10;99.90;;;;;;4169203;28;20176;-91
2023/09/29 09:03:51;;;;;;;4.18;1.20;;;21.70;99.90;;;;;;4169258;28;20188;-90
2023/09/29 09:05:55;;;;;;;1.85;0.70;;;21.70;99.90;;;;;;4185546;28;20202;-90
2023/09/29 09:07:58;;;;;;;1.73;0.68;;;21.80;99.90;;;;;;4184773;28;20635;-90
2023/09/29 09:09:59;;;;;;;1.70;0.80;;;21.50;99.90;;;;;;4167107;28;20211;-95
2023/09/29 09:12:00;;;;;;;3.80;1.20;;;21.30;99.90;;;;;;4168598;28;20676;-96
2023/09/29 09:14:04;;;;;;;4.15;0.95;;;21.20;99.90;;;;;;4165459;28;20687;-90
2023/09/29 09:16:07;;;;;;;6.35;0.90;;;21.40;99.90;;;;;;4167301;28;20636;-90
2023/09/29 09:18:09;;;;;;;4.93;1.20;;;21.20;99.90;;;;;;4167225;28;20625;-91
2023/09/29 09:20:10;;;;;;;4.65;1.15;;;21.40;99.90;;;;;;4169465;28;20187;-90
2023/09/29 09:22:22;;;;;;;3.03;1.13;;;21.30;99.90;;;;;;4172168;28;20551;-89
2023/09/29 09:24:24;;;;;;;3.97;1.10;;;21.20;99.90;;;;;;4183583;28;20191;-91
2023/09/29 09:26:28;;;;;;;1.90;0.88;;;21.20;99.90;;;;;;4170066;28;20222;-91
2023/09/29 09:28:32;;;;;;;8.60;1.58;;;21.30;99.90;;;;;;4186610;28;20175;-96
2023/09/29 09:30:35;;;;;;;2.90;0.77;;;21.30;99.90;;;;;;4166486;28;20759;-93
2023/09/29 09:32:40;;;;;;;2.33;0.70;;;21.20;99.90;;;;;;4167665;28;20180;-96
2023/09/29 09:34:44;;;;;;;3.28;0.90;;;21.00;99.90;;;;;;4167211;28;20220;-96
2023/09/29 09:36:55;;;;;;;2.88;0.60;;;21.00;99.90;;;;;;4184432;28;20620;-93
2023/09/29 09:38:56;;;;;;;2.92;0.65;;;21.00;99.90;;;;;;4166972;28;20210;-90
2023/09/29 09:40:58;;;;;;;3.03;1.00;;;21.00;99.90;;;;;;4184474;28;20651;-90
2023/09/29 09:43:03;;;;;;;2.60;0.73;;;21.30;99.90;;;;;;4185446;28;20696;-96
2023/09/29 09:45:04;;;;;;;8.18;1.30;;;21.30;99.90;;;;;;4171671;28;20196;-91
2023/09/29 09:47:11;;;;;;;2.72;0.95;;;21.50;99.90;;;;;;4170743;28;20222;-89
2023/09/29 09:49:14;;;;;;;1.83;0.63;;;21.40;99.90;;;;;;4171670;28;20163;-90
2023/09/29 09:51:31;;;;;;;2.60;0.98;;;21.50;99.90;;;;;;4170242;28;20203;-91
2023/09/29 09:53:37;;;;;;;4.55;1.05;;;21.50;99.90;;;;;;4188283;28;20242;-91
2023/09/29 09:55:58;;;;;;;3.20;0.70;;;21.70;99.90;;;;;;4187887;28;20167;-91
2023/09/29 09:57:59;;;;;;;2.40;0.70;;;21.50;99.90;;;;;;4168789;28;20180;-90
2023/09/29 10:00:08;;;;;;;8.40;1.25;;;21.60;99.90;;;;;;4174076;28;20219;-95
2023/09/29 10:02:11;;;;;;;4.47;0.95;;;21.50;99.90;;;;;;4171538;28;20207;-92
2023/09/29 10:04:12;;;;;;;3.22;1.02;;;21.30;99.90;;;;;;4186156;28;20306;-94
2023/09/29 10:06:14;;;;;;;4.47;1.08;;;21.50;99.90;;;;;;4168789;28;20310;-91
2023/09/29 10:08:29;;;;;;;1.35;0.70;;;21.60;99.90;;;;;;4170715;28;20222;-92
2023/09/29 10:10:36;;;;;;;4.25;1.02;;;21.50;99.90;;;;;;4171142;28;20208;-94
2023/09/29 10:12:37;;;;;;;4.47;0.77;;;21.60;99.90;;;;;;4185940;28;20202;-90
2023/09/29 10:14:44;;;;;;;2.28;0.85;;;21.80;99.90;;;;;;4170622;28;20242;-91
2023/09/29 10:16:45;;;;;;;4.47;0.60;;;21.70;99.90;;;;;;4172781;28;20169;-89
2023/09/29 10:19:01;;;;;;;3.33;0.75;;;21.90;99.90;;;;;;4171738;28;20200;-90
2023/09/29 10:21:06;;;;;;;6.25;1.25;;;21.50;99.90;;;;;;4168697;28;20164;-90
2023/09/29 10:23:30;;;;;;;1.65;0.63;;;21.20;99.90;;;;;;4170515;28;20234;-91
2023/09/29 10:25:33;;;;;;;1.27;0.73;;;21.30;99.90;;;;;;4184619;28;20688;-94
2023/09/29 10:27:34;;;;;;;2.97;1.05;;;21.20;99.90;;;;;;4170143;28;20164;-91
2023/09/29 10:29:37;;;;;;;1.67;0.70;;;21.40;99.90;;;;;;4171274;28;20179;-92
2023/09/29 10:31:38;;;;;;;2.10;0.75;;;21.40;99.90;;;;;;4171216;28;20275;-91
2023/09/29 10:33:53;;;;;;;1.50;0.90;;;21.60;99.90;;;;;;4170421;28;20156;-96
2023/09/29 10:35:55;;;;;;;7.03;1.30;;;22.00;99.90;;;;;;4189201;28;20176;-90